Time;durP1;ratioP1;P1;durP2;ratioP2;P2;SDS_P1;SDS_P2;PMS_P1;PMS_P2;Temp;Humidity;BMP_temperature;BMP_pressure;BME280_temperature;BME280_humidity;BME280_pressure;Samples;Min_cycle;Max_cycle;Signal;HPM_P1;HPM_P2
2023/09/23 00:02:09;;;;;;;450.30;132.40;;;;;;;;;;5036610;28;20026;-56
2023/09/23 00:04:35;;;;;;;499.75;134.93;;;;;;;;;;5035110;28;20223;-55
2023/09/23 00:07:01;;;;;;;469.00;131.93;;;;;;;;;;5035573;28;20973;-55
2023/09/23 00:09:27;;;;;;;429.73;130.38;;;;;;;;;;5036377;28;20017;-55
2023/09/23 00:11:52;;;;;;;408.00;130.40;;;;;;;;;;5034410;28;20033;-57
2023/09/23 00:14:17;;;;;;;430.40;131.18;;;;;;;;;;5035549;28;20051;-55
2023/09/23 00:16:45;;;;;;;615.72;141.43;;;;;;;;;;5033642;28;20048;-55
2023/09/23 00:19:10;;;;;;;399.88;130.15;;;;;;;;;;5035569;28;20021;-55
2023/09/23 00:21:35;;;;;;;395.42;133.07;;;;;;;;;;5035863;28;20035;-56
2023/09/23 00:24:01;;;;;;;447.27;137.70;;;;;;;;;;5034386;28;20507;-55
2023/09/23 00:26:27;;;;;;;508.58;138.45;;;;;;;;;;5035197;28;20069;-56
2023/09/23 00:28:52;;;;;;;568.22;140.27;;;;;;;;;;5033899;28;20064;-57
2023/09/23 00:31:18;;;;;;;413.73;134.43;;;;;;;;;;5035596;28;20463;-57
2023/09/23 00:33:44;;;;;;;517.20;138.35;;;;;;;;;;5034114;28;20632;-55
2023/09/23 00:36:09;;;;;;;453.25;135.65;;;;;;;;;;5035231;28;20617;-56
2023/09/23 00:38:35;;;;;;;432.88;135.52;;;;;;;;;;5036495;28;20387;-55
2023/09/23 00:41:01;;;;;;;418.75;134.38;;;;;;;;;;5037435;28;20390;-55
2023/09/23 00:43:26;;;;;;;450.67;133.73;;;;;;;;;;5036305;28;20056;-56
2023/09/23 00:45:54;;;;;;;629.57;145.83;;;;;;;;;;5033593;28;20528;-57
2023/09/23 00:48:22;;;;;;;446.60;136.27;;;;;;;;;;5037008;28;20271;-56
2023/09/23 00:50:48;;;;;;;502.58;139.18;;;;;;;;;;5034509;28;20552;-56
2023/09/23 00:53:14;;;;;;;493.35;136.73;;;;;;;;;;5034367;28;20033;-57
2023/09/23 00:55:42;;;;;;;544.90;140.43;;;;;;;;;;5032773;28;20112;-58
2023/09/23 00:58:10;;;;;;;405.58;133.23;;;;;;;;;;5036720;28;20021;-56
2023/09/23 01:00:37;;;;;;;420.23;133.20;;;;;;;;;;5037848;28;20021;-56
2023/09/23 01:03:02;;;;;;;483.77;138.07;;;;;;;;;;5039941;28;20028;-56
2023/09/23 01:05:32;;;;;;;425.02;134.93;;;;;;;;;;5039189;28;20041;-56
2023/09/23 01:08:06;;;;;;;432.40;135.77;;;;;;;;;;5038531;28;20063;-56
2023/09/23 01:10:31;;;;;;;449.58;136.73;;;;;;;;;;5039074;28;20131;-56
2023/09/23 01:12:57;;;;;;;437.05;136.05;;;;;;;;;;5037729;28;20131;-57
2023/09/23 01:15:25;;;;;;;416.15;135.10;;;;;;;;;;5038491;28;20051;-55
2023/09/23 01:17:53;;;;;;;513.85;139.07;;;;;;;;;;5039060;28;20017;-57
2023/09/23 01:20:19;;;;;;;437.08;135.50;;;;;;;;;;5039888;28;20516;-56
2023/09/23 01:22:47;;;;;;;569.72;144.52;;;;;;;;;;5038171;28;20023;-57
2023/09/23 01:25:13;;;;;;;430.65;136.88;;;;;;;;;;5038450;28;20032;-57
2023/09/23 01:27:39;;;;;;;472.05;138.52;;;;;;;;;;5037940;28;20090;-57
2023/09/23 01:30:04;;;;;;;408.08;136.18;;;;;;;;;;5039273;28;20383;-55
2023/09/23 01:32:39;;;;;;;415.20;136.45;;;;;;;;;;5020569;28;20041;-56
2023/09/23 01:35:05;;;;;;;439.75;138.02;;;;;;;;;;5038535;28;20200;-57
2023/09/23 01:37:30;;;;;;;392.35;135.38;;;;;;;;;;5039274;28;20470;-57
2023/09/23 01:39:55;;;;;;;549.90;144.40;;;;;;;;;;5039547;28;20024;-56
2023/09/23 01:42:21;;;;;;;418.33;137.07;;;;;;;;;;5038965;28;20066;-56
2023/09/23 01:44:46;;;;;;;583.25;146.20;;;;;;;;;;5036109;28;20287;-57
2023/09/23 01:47:12;;;;;;;438.00;141.23;;;;;;;;;;5020113;28;20022;-55
2023/09/23 01:49:38;;;;;;;465.30;141.43;;;;;;;;;;5039086;28;20029;-56
2023/09/23 01:52:03;;;;;;;456.65;139.98;;;;;;;;;;5038023;28;20655;-55
2023/09/23 01:54:29;;;;;;;407.80;138.38;;;;;;;;;;5021068;28;20517;-57
2023/09/23 01:56:54;;;;;;;476.48;140.80;;;;;;;;;;5037882;28;20482;-56
2023/09/23 01:59:20;;;;;;;480.27;141.77;;;;;;;;;;5039381;28;20505;-56
2023/09/23 02:01:45;;;;;;;518.75;143.57;;;;;;;;;;5037626;28;20309;-56
2023/09/23 02:04:11;;;;;;;420.58;138.75;;;;;;;;;;5038211;28;20021;-56
2023/09/23 02:06:43;;;;;;;413.50;139.30;;;;;;;;;;5038130;28;20039;-56
2023/09/23 02:09:09;;;;;;;468.80;140.30;;;;;;;;;;5038677;28;20017;-56
2023/09/23 02:11:37;;;;;;;432.08;137.40;;;;;;;;;;5038018;28;20033;-56
2023/09/23 02:14:04;;;;;;;416.15;138.15;;;;;;;;;;5037006;28;20245;-56
2023/09/23 02:16:29;;;;;;;421.77;138.20;;;;;;;;;;5038232;28;20032;-56
2023/09/23 02:18:54;;;;;;;589.67;148.13;;;;;;;;;;5037345;28;20012;-57
2023/09/23 02:21:19;;;;;;;436.00;139.17;;;;;;;;;;5038896;28;20040;-57
2023/09/23 02:23:45;;;;;;;504.83;142.70;;;;;;;;;;5037281;28;20263;-56
2023/09/23 02:26:11;;;;;;;427.15;138.98;;;;;;;;;;5036797;28;20021;-56
2023/09/23 02:28:37;;;;;;;440.35;139.50;;;;;;;;;;5038555;28;20017;-55
2023/09/23 02:31:02;;;;;;;422.10;138.30;;;;;;;;;;5036676;28;20476;-55
2023/09/23 02:33:29;;;;;;;438.30;140.07;;;;;;;;;;5038307;28;20462;-57
2023/09/23 02:35:54;;;;;;;578.80;146.20;;;;;;;;;;5035483;28;20284;-56
2023/09/23 02:38:21;;;;;;;418.25;138.32;;;;;;;;;;5039269;28;20027;-56
2023/09/23 02:40:47;;;;;;;524.30;143.65;;;;;;;;;;5036957;28;20059;-56
2023/09/23 02:43:12;;;;;;;441.00;139.77;;;;;;;;;;5036810;28;20507;-56
2023/09/23 02:45:38;;;;;;;377.60;136.20;;;;;;;;;;5037782;28;20041;-57
2023/09/23 02:48:03;;;;;;;429.30;139.70;;;;;;;;;;5036035;28;20025;-56
2023/09/23 02:50:28;;;;;;;435.08;139.60;;;;;;;;;;5037284;28;20440;-57
2023/09/23 02:52:54;;;;;;;650.10;150.03;;;;;;;;;;5035503;28;20021;-57
2023/09/23 02:55:19;;;;;;;426.43;139.87;;;;;;;;;;5037207;28;20270;-56
2023/09/23 02:57:46;;;;;;;443.27;138.85;;;;;;;;;;5037862;28;20343;-57
2023/09/23 03:00:19;;;;;;;423.17;138.48;;;;;;;;;;5037962;28;20054;-57
2023/09/23 03:02:54;;;;;;;451.10;138.60;;;;;;;;;;5035988;28;20284;-56
2023/09/23 03:05:26;;;;;;;439.65;138.95;;;;;;;;;;5036521;28;20032;-56
2023/09/23 03:07:52;;;;;;;591.80;147.10;;;;;;;;;;5035983;28;20044;-56
2023/09/23 03:10:31;;;;;;;448.42;139.32;;;;;;;;;;5036257;28;20461;-55
2023/09/23 03:13:02;;;;;;;578.85;143.98;;;;;;;;;;5035796;28;20035;-56
2023/09/23 03:15:33;;;;;;;410.98;137.52;;;;;;;;;;5037040;28;20336;-55
2023/09/23 03:18:00;;;;;;;552.65;144.05;;;;;;;;;;5035810;28;20316;-56
2023/09/23 03:20:26;;;;;;;416.58;137.60;;;;;;;;;;5037182;28;20040;-57
2023/09/23 03:22:52;;;;;;;635.97;147.45;;;;;;;;;;5035462;28;20025;-57
2023/09/23 03:25:18;;;;;;;394.02;135.88;;;;;;;;;;5035974;28;20070;-57
2023/09/23 03:27:43;;;;;;;406.85;137.88;;;;;;;;;;5037381;28;20021;-56
2023/09/23 03:30:12;;;;;;;436.60;138.18;;;;;;;;;;5035632;28;20024;-56
2023/09/23 03:32:37;;;;;;;457.30;139.80;;;;;;;;;;5036509;28;20478;-56
2023/09/23 03:35:03;;;;;;;619.17;146.82;;;;;;;;;;5035650;28;20025;-57
2023/09/23 03:37:29;;;;;;;413.23;136.98;;;;;;;;;;5036905;28;20560;-57
2023/09/23 03:39:55;;;;;;;600.22;146.60;;;;;;;;;;5035101;28;20021;-56
2023/09/23 03:42:20;;;;;;;473.33;140.10;;;;;;;;;;5036389;28;20041;-56
2023/09/23 03:44:46;;;;;;;458.02;137.57;;;;;;;;;;5035027;28;20472;-56
2023/09/23 03:47:11;;;;;;;382.67;134.73;;;;;;;;;;5036714;28;20036;-56
2023/09/23 03:49:36;;;;;;;458.00;138.97;;;;;;;;;;5036431;28;20613;-56
2023/09/23 03:52:05;;;;;;;547.63;143.37;;;;;;;;;;5034607;28;20669;-56
2023/09/23 03:54:30;;;;;;;457.63;138.98;;;;;;;;;;5036340;28;20283;-55
2023/09/23 03:56:57;;;;;;;493.00;140.32;;;;;;;;;;5035456;28;20033;-56
2023/09/23 03:59:22;;;;;;;442.35;139.35;;;;;;;;;;5037120;28;20064;-56
2023/09/23 04:01:48;;;;;;;470.85;140.35;;;;;;;;;;5035095;28;20071;-56
2023/09/23 04:04:13;;;;;;;416.13;137.35;;;;;;;;;;5036318;28;20573;-57
2023/09/23 04:06:38;;;;;;;471.80;139.30;;;;;;;;;;5036482;28;20033;-56
2023/09/23 04:09:09;;;;;;;549.33;143.80;;;;;;;;;;5034741;28;20090;-56
2023/09/23 04:11:35;;;;;;;441.77;137.68;;;;;;;;;;5036293;28;20137;-56
2023/09/23 04:14:00;;;;;;;555.20;143.02;;;;;;;;;;5034867;28;20141;-56
2023/09/23 04:16:25;;;;;;;424.70;136.02;;;;;;;;;;5036177;28;20029;-56
2023/09/23 04:18:51;;;;;;;524.40;141.68;;;;;;;;;;5035604;28;20275;-57
2023/09/23 04:21:17;;;;;;;425.60;137.55;;;;;;;;;;5036544;28;20830;-56
2023/09/23 04:23:42;;;;;;;493.92;139.18;;;;;;;;;;5036363;28;20025;-57
2023/09/23 04:26:08;;;;;;;473.53;137.47;;;;;;;;;;5034354;28;20071;-56
2023/09/23 04:28:33;;;;;;;417.50;135.15;;;;;;;;;;5037336;28;20309;-57
2023/09/23 04:30:58;;;;;;;579.92;144.98;;;;;;;;;;5034710;28;20083;-58
2023/09/23 04:33:27;;;;;;;453.20;136.77;;;;;;;;;;5038205;28;20032;-58
2023/09/23 04:35:56;;;;;;;507.83;142.32;;;;;;;;;;5038852;28;20035;-57
2023/09/23 04:38:22;;;;;;;403.65;135.50;;;;;;;;;;5041414;28;20033;-56
2023/09/23 04:40:47;;;;;;;483.50;139.77;;;;;;;;;;5039443;28;20047;-56
2023/09/23 04:43:12;;;;;;;486.88;139.45;;;;;;;;;;5038288;28;20039;-56
2023/09/23 04:45:38;;;;;;;428.05;137.50;;;;;;;;;;5038857;28;20033;-58
2023/09/23 04:48:06;;;;;;;570.15;144.63;;;;;;;;;;5038136;28;20123;-55
2023/09/23 04:50:32;;;;;;;438.73;139.43;;;;;;;;;;5040138;28;20533;-57
2023/09/23 04:52:59;;;;;;;632.88;148.50;;;;;;;;;;5037381;28;20027;-56
2023/09/23 04:55:25;;;;;;;409.13;135.40;;;;;;;;;;5040060;28;20120;-58
2023/09/23 04:57:50;;;;;;;460.58;139.73;;;;;;;;;;5038483;28;20096;-55
2023/09/23 05:00:19;;;;;;;451.50;138.13;;;;;;;;;;5022207;28;20028;-58
2023/09/23 05:02:47;;;;;;;467.50;139.40;;;;;;;;;;5039064;28;20152;-59
2023/09/23 05:05:13;;;;;;;430.50;136.38;;;;;;;;;;5037453;28;20405;-57
2023/09/23 05:07:38;;;;;;;483.02;140.52;;;;;;;;;;5021584;28;20581;-58
2023/09/23 05:10:05;;;;;;;599.58;147.43;;;;;;;;;;5038612;28;20017;-59
2023/09/23 05:12:30;;;;;;;428.60;138.57;;;;;;;;;;5039765;28;20061;-58
2023/09/23 05:14:57;;;;;;;461.33;140.43;;;;;;;;;;5039386;28;20512;-55
2023/09/23 05:17:26;;;;;;;442.13;140.13;;;;;;;;;;5040262;28;20635;-56
2023/09/23 05:19:51;;;;;;;465.08;141.35;;;;;;;;;;5039097;28;20348;-55
2023/09/23 05:22:16;;;;;;;413.30;138.43;;;;;;;;;;5039425;28;20033;-55
2023/09/23 05:24:47;;;;;;;497.23;142.90;;;;;;;;;;5021882;28;20482;-56
2023/09/23 05:27:12;;;;;;;473.23;141.68;;;;;;;;;;5037186;28;20030;-57
2023/09/23 05:29:37;;;;;;;419.13;140.68;;;;;;;;;;5040102;28;20025;-57
2023/09/23 05:32:03;;;;;;;509.75;144.98;;;;;;;;;;5038285;28;20025;-56
2023/09/23 05:34:28;;;;;;;400.23;139.75;;;;;;;;;;5021889;28;20021;-56
2023/09/23 05:36:54;;;;;;;481.90;144.33;;;;;;;;;;5038146;28;20032;-56
2023/09/23 05:39:19;;;;;;;433.40;141.13;;;;;;;;;;5040165;28;20310;-56
2023/09/23 05:41:48;;;;;;;439.02;142.95;;;;;;;;;;5038814;28;20421;-56
2023/09/23 05:44:15;;;;;;;447.33;141.63;;;;;;;;;;5037715;28;20033;-56
2023/09/23 05:46:42;;;;;;;473.15;143.95;;;;;;;;;;5037317;28;20048;-56
2023/09/23 05:49:08;;;;;;;468.58;142.20;;;;;;;;;;5039143;28;20023;-56
2023/09/23 05:51:34;;;;;;;467.75;144.00;;;;;;;;;;5040826;28;20061;-55
2023/09/23 05:54:00;;;;;;;509.08;144.75;;;;;;;;;;5040080;28;20048;-56
2023/09/23 05:56:25;;;;;;;397.40;139.50;;;;;;;;;;5040335;28;20032;-57
2023/09/23 05:58:50;;;;;;;397.53;138.93;;;;;;;;;;5041325;28;20017;-57
2023/09/23 06:01:15;;;;;;;435.03;141.40;;;;;;;;;;5039679;28;20387;-57
2023/09/23 06:03:41;;;;;;;457.17;142.30;;;;;;;;;;5040983;28;20260;-56
2023/09/23 06:06:06;;;;;;;511.60;143.23;;;;;;;;;;5039472;28;20279;-56
2023/09/23 06:08:31;;;;;;;434.45;130.95;;;;;;;;;;5040727;28;20024;-57
2023/09/23 06:11:00;;;;;;;460.43;134.60;;;;;;;;;;5039630;28;20132;-57
2023/09/23 06:13:25;;;;;;;458.15;134.07;;;;;;;;;;5040612;28;20486;-56
2023/09/23 06:15:52;;;;;;;427.30;133.03;;;;;;;;;;5040490;28;20310;-56
2023/09/23 06:18:17;;;;;;;421.35;118.97;;;;;;;;;;5040451;28;20247;-57
2023/09/23 06:20:43;;;;;;;409.47;110.33;;;;;;;;;;5039759;28;20079;-56
2023/09/23 06:23:08;;;;;;;491.50;116.10;;;;;;;;;;5039692;28;20341;-56
2023/09/23 06:25:33;;;;;;;434.88;112.60;;;;;;;;;;5039555;28;20103;-56
2023/09/23 06:27:58;;;;;;;485.42;117.25;;;;;;;;;;5039781;28;20028;-57
2023/09/23 06:30:24;;;;;;;402.90;113.80;;;;;;;;;;5040015;28;20029;-57
2023/09/23 06:32:49;;;;;;;451.80;116.33;;;;;;;;;;5039924;28;20256;-56
2023/09/23 06:35:14;;;;;;;377.13;99.63;;;;;;;;;;5039632;28;20374;-57
2023/09/23 06:37:40;;;;;;;389.30;95.43;;;;;;;;;;5021474;28;20836;-57
2023/09/23 06:40:05;;;;;;;441.45;98.53;;;;;;;;;;5039504;28;20502;-56
2023/09/23 06:42:30;;;;;;;419.77;98.00;;;;;;;;;;5038969;28;20056;-57
2023/09/23 06:44:56;;;;;;;399.67;97.30;;;;;;;;;;5038859;28;20028;-57
2023/09/23 06:47:21;;;;;;;393.33;97.53;;;;;;;;;;5039171;28;20275;-58
2023/09/23 06:49:46;;;;;;;381.13;96.00;;;;;;;;;;5040097;28;20877;-56
2023/09/23 06:52:12;;;;;;;440.93;99.30;;;;;;;;;;5038736;28;20030;-57
2023/09/23 06:54:37;;;;;;;407.35;95.22;;;;;;;;;;5038378;28;20027;-57
2023/09/23 06:57:02;;;;;;;441.30;96.97;;;;;;;;;;5038225;28;20036;-57
2023/09/23 06:59:28;;;;;;;314.42;76.35;;;;;;;;;;5039285;28;20270;-57
2023/09/23 07:01:53;;;;;;;371.15;83.25;;;;;;;;;;5038735;28;20583;-56
2023/09/23 07:04:18;;;;;;;365.95;85.35;;;;;;;;;;5038375;28;20025;-57
2023/09/23 07:06:44;;;;;;;347.07;85.77;;;;;;;;;;5021520;28;20251;-57
2023/09/23 07:09:09;;;;;;;395.13;86.97;;;;;;;;;;5038394;28;20053;-57
2023/09/23 07:11:35;;;;;;;352.37;77.73;;;;;;;;;;5040144;28;20433;-57
2023/09/23 07:14:03;;;;;;;414.00;83.63;;;;;;;;;;5039509;28;20252;-57
2023/09/23 07:16:29;;;;;;;347.60;83.28;;;;;;;;;;5038629;28;20032;-57
2023/09/23 07:18:54;;;;;;;383.67;85.25;;;;;;;;;;5038841;28;20388;-57
2023/09/23 07:21:19;;;;;;;343.00;84.97;;;;;;;;;;5037022;28;20032;-57
2023/09/23 07:23:44;;;;;;;423.20;89.38;;;;;;;;;;5038877;28;20100;-57
2023/09/23 07:26:10;;;;;;;439.40;92.60;;;;;;;;;;5037248;28;20467;-56
2023/09/23 07:28:35;;;;;;;377.75;91.13;;;;;;;;;;5038576;28;20306;-56
2023/09/23 07:31:01;;;;;;;446.30;94.68;;;;;;;;;;5037652;28;20044;-56
2023/09/23 07:33:26;;;;;;;400.48;92.97;;;;;;;;;;5038561;28;20359;-56
2023/09/23 07:35:51;;;;;;;386.67;93.68;;;;;;;;;;5038601;28;20025;-57
2023/09/23 07:38:17;;;;;;;399.35;94.47;;;;;;;;;;5036711;28;20013;-56
2023/09/23 07:40:42;;;;;;;357.92;93.45;;;;;;;;;;5036822;28;20029;-55
2023/09/23 07:43:07;;;;;;;410.80;92.72;;;;;;;;;;5019861;28;20108;-56
2023/09/23 07:45:33;;;;;;;364.63;92.40;;;;;;;;;;5037990;28;20073;-56
2023/09/23 07:47:59;;;;;;;432.95;95.38;;;;;;;;;;5037909;28;20404;-56
2023/09/23 07:50:24;;;;;;;387.63;92.33;;;;;;;;;;5037784;28;20021;-57
2023/09/23 07:52:50;;;;;;;374.65;89.78;;;;;;;;;;5038519;28;20263;-56
2023/09/23 07:55:15;;;;;;;436.30;93.15;;;;;;;;;;5037766;28;20071;-56
2023/09/23 07:57:40;;;;;;;384.98;90.07;;;;;;;;;;5038393;28;20115;-57
2023/09/23 08:00:08;;;;;;;470.35;93.20;;;;;;;;;;5038322;28;20432;-57
2023/09/23 08:02:35;;;;;;;383.25;91.53;;;;;;;;;;5038233;28;20119;-57
2023/09/23 08:05:00;;;;;;;406.05;92.35;;;;;;;;;;5037347;28;20398;-56
2023/09/23 08:07:25;;;;;;;352.93;91.17;;;;;;;;;;5037760;28;20029;-56
2023/09/23 08:09:51;;;;;;;399.08;92.78;;;;;;;;;;5042378;28;20830;-55
2023/09/23 08:12:17;;;;;;;389.30;94.47;;;;;;;;;;5041292;28;20481;-56
2023/09/23 08:14:42;;;;;;;413.92;95.50;;;;;;;;;;5041311;28;20537;-57
2023/09/23 08:17:07;;;;;;;475.38;99.97;;;;;;;;;;5040120;28;20040;-57
2023/09/23 08:19:33;;;;;;;387.03;95.47;;;;;;;;;;5042905;28;20079;-57
2023/09/23 08:21:58;;;;;;;453.35;98.60;;;;;;;;;;5038748;28;20271;-55
2023/09/23 08:24:24;;;;;;;385.30;97.63;;;;;;;;;;5041139;28;20191;-57
2023/09/23 08:26:49;;;;;;;392.07;97.60;;;;;;;;;;5040780;28;20379;-57
2023/09/23 08:29:15;;;;;;;428.10;100.27;;;;;;;;;;5040893;28;20337;-58
2023/09/23 08:31:40;;;;;;;406.52;97.50;;;;;;;;;;5041277;28;20138;-57
2023/09/23 08:34:09;;;;;;;454.83;98.90;;;;;;;;;;5040485;28;20367;-58
2023/09/23 08:36:37;;;;;;;366.63;91.28;;;;;;;;;;5040118;28;20029;-56
2023/09/23 08:39:05;;;;;;;389.45;97.30;;;;;;;;;;5040700;28;20028;-58
2023/09/23 08:41:31;;;;;;;391.30;88.85;;;;;;;;;;5041097;28;20363;-57
2023/09/23 08:43:58;;;;;;;342.23;85.10;;;;;;;;;;5039193;28;20463;-58
2023/09/23 08:46:23;;;;;;;324.73;85.20;;;;;;;;;;5037923;28;20044;-56
2023/09/23 08:48:48;;;;;;;460.65;152.73;;;;;;;;;;5041351;28;20029;-57
2023/09/23 08:51:17;;;;;;;427.23;87.30;;;;;;;;;;5039400;28;20525;-57
2023/09/23 08:53:43;;;;;;;353.38;85.57;;;;;;;;;;5040411;28;20255;-56
2023/09/23 08:56:09;;;;;;;418.90;86.05;;;;;;;;;;5039493;28;20025;-57
2023/09/23 08:58:34;;;;;;;362.02;84.47;;;;;;;;;;5041762;28;20297;-56
2023/09/23 09:01:00;;;;;;;382.63;85.88;;;;;;;;;;5039549;28;20045;-56
2023/09/23 09:03:26;;;;;;;364.52;84.38;;;;;;;;;;5040814;28;20028;-56
2023/09/23 09:05:51;;;;;;;379.80;86.35;;;;;;;;;;5039760;28;20645;-58
2023/09/23 09:08:18;;;;;;;401.85;86.93;;;;;;;;;;5039291;28;20021;-57
2023/09/23 09:10:43;;;;;;;406.27;87.38;;;;;;;;;;5039488;28;20101;-56
2023/09/23 09:13:08;;;;;;;426.17;94.53;;;;;;;;;;5039861;28;20029;-57
2023/09/23 09:15:35;;;;;;;346.38;87.15;;;;;;;;;;5037603;28;20279;-57
2023/09/23 09:18:00;;;;;;;383.88;87.32;;;;;;;;;;5039488;28;20025;-56
2023/09/23 09:20:26;;;;;;;410.55;89.93;;;;;;;;;;5038676;28;20017;-56
2023/09/23 09:22:51;;;;;;;410.48;91.15;;;;;;;;;;5040469;28;20363;-57
2023/09/23 09:25:17;;;;;;;465.52;95.50;;;;;;;;;;5036409;28;20328;-56
2023/09/23 09:27:43;;;;;;;375.50;90.35;;;;;;;;;;5040994;28;20013;-56
2023/09/23 09:30:11;;;;;;;487.48;95.90;;;;;;;;;;5039501;28;20009;-55
2023/09/23 09:32:36;;;;;;;350.33;90.15;;;;;;;;;;5040998;28;20167;-57
2023/09/23 09:35:03;;;;;;;407.27;91.90;;;;;;;;;;5037554;28;20108;-56
2023/09/23 09:37:30;;;;;;;384.08;91.85;;;;;;;;;;5038805;28;20179;-56
2023/09/23 09:40:00;;;;;;;391.70;90.03;;;;;;;;;;5040050;28;20032;-57
2023/09/23 09:42:33;;;;;;;372.33;88.43;;;;;;;;;;5038521;28;20542;-57
2023/09/23 09:44:58;;;;;;;456.48;90.75;;;;;;;;;;5038031;28;20068;-57
2023/09/23 09:47:24;;;;;;;342.55;94.68;;;;;;;;;;5038946;28;20587;-57
2023/09/23 09:49:52;;;;;;;360.38;105.07;;;;;;;;;;5040080;28;20418;-56
2023/09/23 09:52:20;;;;;;;428.75;87.93;;;;;;;;;;5020165;28;20402;-57
2023/09/23 09:54:46;;;;;;;415.67;86.32;;;;;;;;;;5038307;28;20021;-57
2023/09/23 09:57:12;;;;;;;426.50;89.35;;;;;;;;;;5038906;28;20040;-57
2023/09/23 09:59:39;;;;;;;312.23;74.35;;;;;;;;;;5040305;28;20075;-56
2023/09/23 10:02:05;;;;;;;379.63;82.68;;;;;;;;;;5038006;28;20076;-56
2023/09/23 10:04:34;;;;;;;336.65;83.10;;;;;;;;;;5037808;28;20113;-57
2023/09/23 10:07:00;;;;;;;362.30;85.25;;;;;;;;;;5036822;28;20039;-57
2023/09/23 10:09:28;;;;;;;335.70;82.93;;;;;;;;;;5039349;28;20029;-56
2023/09/23 10:11:55;;;;;;;421.15;89.68;;;;;;;;;;5038792;28;20613;-57
2023/09/23 10:14:21;;;;;;;449.45;93.07;;;;;;;;;;5037299;28;20426;-56
2023/09/23 10:17:01;;;;;;;353.02;84.38;;;;;;;;;;5037671;28;20557;-57
2023/09/23 10:19:30;;;;;;;343.77;80.97;;;;;;;;;;5038394;28;20021;-60
2023/09/23 10:22:11;;;;;;;423.27;92.97;;;;;;;;;;5037887;28;20040;-57
2023/09/23 10:24:36;;;;;;;339.20;85.83;;;;;;;;;;5038266;28;20017;-56
2023/09/23 10:27:06;;;;;;;429.73;88.78;;;;;;;;;;5020318;28;20121;-57
2023/09/23 10:29:45;;;;;;;335.13;89.93;;;;;;;;;;5039136;28;20048;-58
2023/09/23 10:32:12;;;;;;;415.55;88.95;;;;;;;;;;5036716;28;20064;-56
2023/09/23 10:34:44;;;;;;;408.15;89.85;;;;;;;;;;5036167;28;20037;-57
2023/09/23 10:37:09;;;;;;;484.08;95.13;;;;;;;;;;5017323;28;20449;-56
2023/09/23 10:39:35;;;;;;;408.55;91.85;;;;;;;;;;5039364;28;20568;-57
2023/09/23 10:42:00;;;;;;;363.77;91.40;;;;;;;;;;5037514;28;20106;-57
2023/09/23 10:44:25;;;;;;;388.40;92.65;;;;;;;;;;5037355;28;20321;-56
2023/09/23 10:46:52;;;;;;;352.95;92.32;;;;;;;;;;5038277;28;20033;-57
2023/09/23 10:49:18;;;;;;;502.08;99.95;;;;;;;;;;5037760;28;20021;-57
2023/09/23 10:51:44;;;;;;;385.38;95.75;;;;;;;;;;5037923;28;20389;-57
2023/09/23 10:54:12;;;;;;;506.95;102.80;;;;;;;;;;5037462;28;20021;-57
2023/09/23 10:56:37;;;;;;;375.65;96.20;;;;;;;;;;5037639;28;20047;-57
2023/09/23 10:59:04;;;;;;;469.58;147.57;;;;;;;;;;5038620;28;20597;-58
2023/09/23 11:01:29;;;;;;;391.17;96.43;;;;;;;;;;5036525;28;20264;-57
2023/09/23 11:03:54;;;;;;;364.13;94.70;;;;;;;;;;5036959;28;20474;-56
2023/09/23 11:06:20;;;;;;;488.17;93.22;;;;;;;;;;5034654;28;20298;-57
2023/09/23 11:08:45;;;;;;;423.03;94.00;;;;;;;;;;5037835;28;20052;-56
2023/09/23 11:11:10;;;;;;;482.17;98.97;;;;;;;;;;5035678;28;20119;-57
2023/09/23 11:13:35;;;;;;;360.58;94.10;;;;;;;;;;5036327;28;20270;-57
2023/09/23 11:16:08;;;;;;;422.93;96.80;;;;;;;;;;5036726;28;20514;-56
2023/09/23 11:18:35;;;;;;;379.90;96.25;;;;;;;;;;5038255;28;20330;-57
2023/09/23 11:21:02;;;;;;;418.67;98.43;;;;;;;;;;5037658;28;20037;-57
2023/09/23 11:23:29;;;;;;;358.75;97.32;;;;;;;;;;5035951;28;20204;-57
2023/09/23 11:25:55;;;;;;;458.02;99.57;;;;;;;;;;5036380;28;20727;-57
2023/09/23 11:28:21;;;;;;;457.80;89.35;;;;;;;;;;5038231;28;20116;-56
2023/09/23 11:30:47;;;;;;;367.48;85.80;;;;;;;;;;5037703;28;20029;-59
2023/09/23 11:33:13;;;;;;;433.45;84.60;;;;;;;;;;5036575;28;20013;-57
2023/09/23 11:35:38;;;;;;;356.10;86.00;;;;;;;;;;5034099;28;20075;-56
2023/09/23 11:38:04;;;;;;;387.50;89.95;;;;;;;;;;5037387;28;20033;-57
2023/09/23 11:40:30;;;;;;;366.08;88.80;;;;;;;;;;5036598;28;20048;-56
2023/09/23 11:42:55;;;;;;;459.65;92.53;;;;;;;;;;5036765;28;20114;-56
2023/09/23 11:45:21;;;;;;;430.33;93.03;;;;;;;;;;5017749;28;20112;-57
2023/09/23 11:47:46;;;;;;;399.25;91.93;;;;;;;;;;5037623;28;20478;-56
2023/09/23 11:50:12;;;;;;;455.15;96.13;;;;;;;;;;5035773;28;20039;-57
2023/09/23 11:52:38;;;;;;;405.42;94.00;;;;;;;;;;5037476;28;20059;-56
2023/09/23 11:55:03;;;;;;;420.67;95.83;;;;;;;;;;5034282;28;20052;-57
2023/09/23 11:57:28;;;;;;;381.75;94.70;;;;;;;;;;5035463;28;20276;-56
2023/09/23 11:59:54;;;;;;;381.30;94.70;;;;;;;;;;5036784;28;20504;-58
2023/09/23 12:02:21;;;;;;;468.27;101.18;;;;;;;;;;5035293;28;20632;-57
2023/09/23 12:04:49;;;;;;;426.55;95.65;;;;;;;;;;5035425;28;20063;-57
2023/09/23 12:07:15;;;;;;;393.15;96.30;;;;;;;;;;5035594;28;20056;-56
2023/09/23 12:09:41;;;;;;;353.25;90.40;;;;;;;;;;5038126;28;20063;-58
2023/09/23 12:12:07;;;;;;;343.85;90.28;;;;;;;;;;5036736;28;20402;-56
2023/09/23 12:14:33;;;;;;;367.05;91.72;;;;;;;;;;5036139;28;20810;-56
2023/09/23 12:16:58;;;;;;;458.40;94.05;;;;;;;;;;5025568;28;20041;-56
2023/09/23 12:19:23;;;;;;;546.92;100.75;;;;;;;;;;5031126;28;20027;-56
2023/09/23 12:21:52;;;;;;;392.13;94.17;;;;;;;;;;5033652;28;20029;-57
2023/09/23 12:24:17;;;;;;;509.10;100.38;;;;;;;;;;5032104;28;21076;-57
2023/09/23 12:26:42;;;;;;;397.88;94.53;;;;;;;;;;5034124;28;20029;-57
2023/09/23 12:29:08;;;;;;;433.35;95.70;;;;;;;;;;5034357;28;20023;-58
2023/09/23 12:31:33;;;;;;;394.30;94.53;;;;;;;;;;5032557;28;20031;-58
2023/09/23 12:33:59;;;;;;;465.47;97.53;;;;;;;;;;5032846;28;20017;-58
2023/09/23 12:36:24;;;;;;;533.15;102.13;;;;;;;;;;5031141;28;20272;-58
2023/09/23 12:38:49;;;;;;;429.02;96.85;;;;;;;;;;5034064;28;20020;-59
2023/09/23 12:41:16;;;;;;;555.85;104.40;;;;;;;;;;5032915;28;20060;-58
2023/09/23 12:43:41;;;;;;;508.85;103.63;;;;;;;;;;5033636;28;20071;-59
2023/09/23 12:46:06;;;;;;;485.08;100.95;;;;;;;;;;5032749;28;20160;-58
2023/09/23 12:48:31;;;;;;;452.00;100.45;;;;;;;;;;5033961;28;20610;-59
2023/09/23 12:50:57;;;;;;;496.90;102.83;;;;;;;;;;5033628;28;20113;-58
2023/09/23 12:53:22;;;;;;;639.85;125.63;;;;;;;;;;5033097;28;20760;-58
2023/09/23 12:55:47;;;;;;;502.05;102.30;;;;;;;;;;5034063;28;20124;-58
2023/09/23 12:58:14;;;;;;;468.80;103.28;;;;;;;;;;5035887;28;20561;-58
2023/09/23 13:00:41;;;;;;;450.70;101.25;;;;;;;;;;5036403;28;20022;-58
2023/09/23 13:03:08;;;;;;;513.78;103.68;;;;;;;;;;5036576;28;20017;-59
2023/09/23 13:05:35;;;;;;;454.65;100.43;;;;;;;;;;5019137;28;20032;-55
2023/09/23 13:08:00;;;;;;;379.50;98.63;;;;;;;;;;5037582;28;20027;-57
2023/09/23 13:10:25;;;;;;;520.90;104.88;;;;;;;;;;5035655;28;20013;-58
2023/09/23 13:12:51;;;;;;;430.63;100.40;;;;;;;;;;5037000;28;20024;-57
2023/09/23 13:15:16;;;;;;;487.73;104.05;;;;;;;;;;5035047;28;20032;-59
2023/09/23 13:17:42;;;;;;;390.17;99.13;;;;;;;;;;5018041;28;20490;-58
2023/09/23 13:20:07;;;;;;;377.83;97.47;;;;;;;;;;5038244;28;20260;-59
2023/09/23 13:22:32;;;;;;;393.90;99.18;;;;;;;;;;5037435;28;20632;-57
2023/09/23 13:24:58;;;;;;;426.77;119.20;;;;;;;;;;5038454;28;20032;-58
2023/09/23 13:27:23;;;;;;;500.23;104.87;;;;;;;;;;5037727;28;20033;-57
2023/09/23 13:29:48;;;;;;;369.57;96.70;;;;;;;;;;5039754;28;20251;-58
2023/09/23 13:32:14;;;;;;;406.83;99.82;;;;;;;;;;5036830;28;20305;-59
2023/09/23 13:34:39;;;;;;;432.52;100.25;;;;;;;;;;5039488;28;20187;-60
2023/09/23 13:37:05;;;;;;;445.35;101.40;;;;;;;;;;5038160;28;20024;-59
2023/09/23 13:39:30;;;;;;;544.15;106.25;;;;;;;;;;5038444;28;20025;-59
2023/09/23 13:41:56;;;;;;;443.92;100.63;;;;;;;;;;5038919;28;20043;-58
2023/09/23 13:44:24;;;;;;;572.97;106.82;;;;;;;;;;5036961;28;20056;-59
2023/09/23 13:46:50;;;;;;;468.65;101.80;;;;;;;;;;5037881;28;20033;-57
2023/09/23 13:49:15;;;;;;;453.92;102.40;;;;;;;;;;5038490;28;20163;-59
2023/09/23 13:51:41;;;;;;;444.55;101.88;;;;;;;;;;5038336;28;20621;-58